• Join FlightAware (Why Join?)
  • Login
  • US Flag 
03:14AM EST


 

Airport Tracker/Info


-or-


 

Live Flight TrackerFlight Track Log ✈ ASQ6159 ✈ 07-May-2013 ✈ KORD - KABE

Flight Track Log - Related Links

Times and Time Zones

All times are in EDT time to prevent confusion due to time zone crossing. See the ASQ6159 flight status page for this flight to view local times or setup timezone preferences in your user account.

Time Position Orientation Groundspeed Altitude Reporting Facility
EDT Latitude Longitude Course Direction KTS MPH feet Rate Location/Type
09:13PM 42.0167 -87.8500 90° East 181 208 2,900  Level Chicago TRACON
09:14PM 42.0167 -87.7667 90° East 222 255 4,400 1,740 Climbing Chicago TRACON
09:15PM 42.0167 -87.6667 90° East 266 306 6,300 2,040 Climbing Chicago TRACON
09:17PM 41.9953 -87.5028 100° East 272 313 10,100 1,920 Climbing Chicago Center
09:18PM 41.9831 -87.3986 99° East 279 321 11,700 1,560 Climbing Chicago Center
09:19PM 41.9711 -87.2864 98° East 295 339 13,400 1,320 Climbing Chicago Center
09:20PM 41.9581 -87.1692 98° East 310 357 14,500 960 Climbing Chicago Center
09:21PM 41.9442 -87.0425 98° East 334 384 15,500 960 Climbing Chicago Center
09:22PM 41.9461 -86.9089 89° East 354 407 16,500 1,020 Climbing Chicago Center
09:23PM 41.9486 -86.7461 89° East 363 418 17,700 960 Climbing Chicago Center
09:24PM 41.9497 -86.6272 89° East 373 429 18,500 1,020 Climbing Chicago Center
09:25PM 41.9519 -86.4564 89° East 379 436 19,800 1,080 Climbing Chicago Center
09:26PM 41.9533 -86.3108 89° East 387 445 20,800 960 Climbing Chicago Center
09:27PM 41.9514 -86.1653 91° East 390 449 21,800 960 Climbing Chicago Center
09:28PM 41.9378 -86.0194 97° East 393 452 22,800 960 Climbing Chicago Center
09:29PM 41.9233 -85.8731 98° East 394 453 23,900 1,020 Climbing Chicago Center
09:30PM 41.9103 -85.7256 97° East 395 455 24,900 480 Climbing Chicago Center
09:31PM 41.8961 -85.5764 97° East 399 459 25,000  Climbing Chicago Center
09:32PM 41.8808 -85.4164 97° East 420 483 25,000  Level Chicago Center
09:33PM 41.8639 -85.2536 98° East 433 498 25,000  Level Chicago Center
09:34PM 41.8436 -85.0556 98° East 444 511 25,000  Level Chicago Center
09:35PM 41.8272 -84.8889 97° East 449 517 25,000  Level Chicago Center
09:36PM 41.8097 -84.7222 98° East 451 519 25,000 60 Level Chicago Center
09:37PM 41.7919 -84.5583 98° East 445 512 25,200 720 Climbing Chicago Center
09:38PM 41.7756 -84.4003 98° East 431 496 26,500 1,080 Climbing Chicago Center
09:39PM 41.7767 -84.2394 89° East 422 486 27,600 960 Climbing Cleveland Center
09:40PM 41.7728 -84.0914 92° East 406 467 28,600 960 Climbing Cleveland Center
09:41PM 41.7731 -83.9467 90° East 395 455 29,600 660 Climbing Cleveland Center
09:42PM 41.7708 -83.8044 91° East 389 448 30,000 180 Climbing Cleveland Center
09:43PM 41.7686 -83.6542 91° East 389 448 30,000  Level Cleveland Center
09:44PM 41.7644 -83.4981 92° East 399 459 30,000  Level Cleveland Center
09:45PM 41.7494 -83.3414 97° East 412 474 30,000  Level Cleveland Center
09:46PM 41.7325 -83.1847 98° East 417 480 30,000  Level Cleveland Center
09:47PM 41.7169 -83.0283 98° East 417 480 30,000  Level Cleveland Center
09:48PM 41.7036 -82.8750 97° East 417 480 30,000  Level Cleveland Center
09:49PM 41.6858 -82.7186 99° East 417 480 30,000  Level Cleveland Center
09:50PM 41.6697 -82.5650 98° East 417 480 30,000  Level Cleveland Center
09:51PM 41.6536 -82.4117 98° East 417 480 30,000  Level Cleveland Center
09:52PM 41.6372 -82.2500 98° East 424 488 30,000  Level Cleveland Center
09:53PM 41.6206 -82.0997 98° East 424 488 30,000  Level Cleveland Center
09:54PM 41.6058 -81.9439 97° East 424 488 30,000  Level Cleveland Center
09:55PM 41.5867 -81.7908 99° East 417 480 30,000  Level Cleveland Center
09:56PM 41.5697 -81.6239 98° East 417 480 30,000  Level Cleveland Center
09:57PM 41.5500 -81.4739 100° East 412 474 30,000  Level Cleveland Center
09:58PM 41.5344 -81.3183 98° East 412 474 30,000  Level Cleveland Center
09:59PM 41.5167 -81.1683 99° East 412 474 30,000  Level Cleveland Center
10:00PM 41.5028 -81.0128 97° East 412 474 30,000  Level Cleveland Center
10:01PM 41.4886 -80.8603 97° East 412 474 30,000  Level Cleveland Center
10:02PM 41.4764 -80.7244 97° East 407 468 30,000  Level Cleveland Center
10:03PM 41.4639 -80.5719 96° East 412 474 30,000  Level Cleveland Center
10:04PM 41.4492 -80.4197 97° East 412 474 30,000  Level Cleveland Center
10:05PM 41.4364 -80.2536 96° East 407 468 30,000  Level Cleveland Center
10:06PM 41.4211 -80.1014 98° East 407 468 30,000  Level Cleveland Center
10:07PM 41.4058 -79.9686 99° East 407 468 30,000  Level Cleveland Center
10:08PM 41.3906 -79.8164 98° East 407 468 30,000  Level Cleveland Center
10:09PM 41.3769 -79.6644 97° East 407 468 30,000 -120 Level Cleveland Center
10:10PM 41.3608 -79.4958 97° East 407 468 29,800 -600 Descending Cleveland Center
10:11PM 41.3447 -79.3467 98° East 407 468 28,800 -1,200 Descending Cleveland Center
10:12PM 41.3306 -79.2144 98° East 407 468 27,500 -1,440 Descending Cleveland Center
10:13PM 41.3142 -79.0572 98° East 413 475 26,000 -1,260 Descending Cleveland Center
10:14PM 41.2992 -78.8861 97° East 418 481 25,000 -540 Descending Cleveland Center
10:15PM 41.2800 -78.7292 99° East 424 488 25,000  Level Cleveland Center
10:16PM 41.2650 -78.5747 97° East 424 488 25,000  Level Cleveland Center
10:17PM 41.2453 -78.4181 99° East 424 488 25,000  Level Cleveland Center
10:18PM 41.2319 -78.3089 99° East 420 483 25,000  Level New York Center
10:19PM 41.2150 -78.1494 98° East 433 498 25,000  Level New York Center
10:20PM 41.1956 -77.9931 99° East 433 498 25,000 -120 Level New York Center
10:21PM 41.1775 -77.8394 99° East 433 498 24,800 -660 Descending New York Center
10:22PM 41.1533 -77.6853 102° East 433 498 23,700 -1,260 Descending New York Center
10:23PM 41.1264 -77.5364 103° East 428 493 22,400 -1,320 Descending New York Center
10:24PM 41.0997 -77.3850 103° East 423 487 21,100 -1,260 Descending New York Center
10:25PM 41.0700 -77.2417 105° East 417 480 19,900 -1,320 Descending New York Center
10:26PM 41.0444 -77.0989 103° East 411 473 18,600 -1,260 Descending New York Center
10:27PM 41.0181 -76.9644 105° East 393 452 17,400 -1,200 Descending New York Center
10:28PM 40.9958 -76.8331 103° East 376 433 16,200 -1,320 Descending New York Center
10:29PM 40.9692 -76.6989 105° East 371 427 14,900 -1,320 Descending New York Center
10:30PM 40.9444 -76.5703 104° East 364 419 13,600 -1,260 Descending New York Center
10:31PM 40.9211 -76.4475 104° East 359 413 12,400 -1,260 Descending New York Center
10:32PM 40.8975 -76.3275 105° East 346 398 11,100 -1,200 Descending New York Center
10:33PM 40.8794 -76.2244 103° East 314 361 10,000 -1,080 Descending New York Center
10:34PM 40.8608 -76.1297 105° East 274 315 9,000 -600 Descending New York Center
10:35PM 40.8422 -76.0350 105° East 267 307 8,900 -360 Descending New York Center
10:36PM 40.8186 -75.9561 112° Southeast 267 307 8,300 -840 Descending New York Center
10:37PM 40.7867 -75.8744 117° Southeast 260 299 7,300 -1,380 Descending New York Center
10:38PM 40.7508 -75.7894 119° Southeast 250 288 5,700 -1,440 Descending New York Center
10:39PM 40.7208 -75.7106 117° Southeast 245 282 4,500 -1,200 Descending New York Center
10:40PM 40.6814 -75.6558 134° Southeast 234 269 3,300 -720 Descending New York Center
10:41PM 40.6289 -75.6164 150° Southeast 228 262 3,100 -300 Descending New York Center
10:42PM 40.5889 -75.5753 142° Southeast 189 217 2,700 -660 Descending New York Center
10:43PM 40.5969 -75.5267 78° East 133 153 1,900 3,180 Descending New York Center
10:44PM 40.6169 -75.4981 47° Northeast 105 121 9,000 3,540 Climbing New York Center
10:45PM 40.6083 -75.4508 103° East 105 121 9,000  Level New York Center
10:46PM 40.6100 -75.4100 87° East 105 121 9,000  Level New York Center
10:47PM 40.6117 -75.3692 87° East 105 121 9,000  Level New York Center
10:48PM 40.6128 -75.3364 87° East 105 121 9,000  Level New York Center